createdAt,value
2022-11-17T10:50:53.954Z,3.70
2022-11-17T10:56:16.683Z,3.59
2022-11-17T11:01:30.568Z,3.61
2022-11-17T11:06:36.017Z,3.58
2022-11-17T11:11:58.151Z,3.63
2022-11-17T11:17:11.075Z,3.73
2022-11-17T11:22:40.948Z,3.73
2022-11-17T11:27:59.589Z,3.54
2022-11-17T11:33:26.038Z,3.56
2022-11-17T11:39:01.136Z,3.55
2022-11-17T11:44:26.941Z,3.61
2022-11-17T11:49:49.498Z,3.58
2022-11-17T11:55:05.508Z,3.65
2022-11-17T12:00:19.187Z,3.65
2022-11-17T12:05:41.222Z,3.64
2022-11-17T12:11:32.854Z,3.61
2022-11-17T12:16:37.432Z,3.59
2022-11-17T12:21:41.728Z,3.59
2022-11-17T12:26:45.550Z,3.56
2022-11-17T12:32:01.791Z,3.53
2022-11-17T12:37:26.676Z,3.56
2022-11-17T12:42:33.579Z,3.57
2022-11-17T12:48:04.810Z,3.58
2022-11-17T12:53:21.569Z,3.61
2022-11-17T12:58:51.701Z,3.50
2022-11-17T13:04:01.678Z,3.40
2022-11-17T13:09:11.887Z,3.35
2022-11-17T13:14:17.676Z,3.31
2022-11-17T13:19:37.933Z,3.19
2022-11-17T13:24:48.306Z,3.09
2022-11-17T13:30:16.606Z,3.03
2022-11-17T13:35:29.950Z,2.98
2022-11-17T13:40:36.129Z,2.90
2022-11-17T13:45:40.799Z,2.84
2022-11-17T13:50:44.596Z,2.80
2022-11-17T13:55:48.216Z,2.68
2022-11-17T14:00:57.957Z,2.54
2022-11-17T14:06:03.754Z,2.42
2022-11-17T14:11:10.538Z,2.30
2022-11-17T14:16:35.212Z,2.23
2022-11-17T14:22:14.311Z,2.11
2022-11-17T14:27:30.681Z,2.02
2022-11-17T14:32:35.162Z,1.92
2022-11-17T14:37:38.677Z,1.86
2022-11-17T14:42:42.751Z,1.80
2022-11-17T14:47:46.422Z,1.73
2022-11-17T14:52:49.844Z,1.64
2022-11-17T14:57:53.765Z,1.51
2022-11-17T15:02:57.309Z,1.42
2022-11-17T15:08:00.896Z,1.35
2022-11-17T15:13:04.416Z,1.33
2022-11-17T15:18:12.340Z,1.31
2022-11-17T15:23:16.157Z,1.28
2022-11-17T15:28:23.071Z,1.27
2022-11-17T15:33:26.686Z,1.29
2022-11-17T15:38:31.669Z,1.35
2022-11-17T15:43:37.915Z,1.32
2022-11-17T15:48:45.772Z,1.21
2022-11-17T15:53:51.698Z,1.11
2022-11-17T15:59:05.453Z,1.00
2022-11-17T16:04:12.348Z,0.91
2022-11-17T16:09:16.815Z,0.81
2022-11-17T16:14:20.524Z,0.72
2022-11-17T16:19:23.916Z,0.59
2022-11-17T16:24:27.355Z,0.53
2022-11-17T16:29:31.321Z,0.55
2022-11-17T16:34:34.674Z,0.55
2022-11-17T16:39:38.125Z,0.50
2022-11-17T16:44:41.560Z,0.45
2022-11-17T16:49:50.512Z,0.37
2022-11-17T16:54:57.237Z,0.31
2022-11-17T17:00:04.317Z,0.22
2022-11-17T17:05:08.142Z,0.11
2022-11-17T17:10:11.989Z,0.01
2022-11-17T17:15:15.730Z,-0.05
2022-11-17T17:20:19.125Z,-0.01
2022-11-17T17:25:22.536Z,0.10
2022-11-17T17:30:25.985Z,0.12
2022-11-17T17:35:29.359Z,0.12
2022-11-17T17:40:34.310Z,0.08
2022-11-17T17:45:38.128Z,-0.01
2022-11-17T17:50:41.679Z,-0.13
2022-11-17T17:55:45.064Z,-0.24
2022-11-17T18:00:50.114Z,-0.29
2022-11-17T18:05:53.547Z,-0.38
2022-11-17T18:11:01.863Z,-0.39
2022-11-17T18:16:10.493Z,-0.38
2022-11-17T18:21:18.926Z,-0.31
2022-11-17T18:26:34.114Z,-0.28
2022-11-17T18:31:38.414Z,-0.24
2022-11-17T18:36:42.155Z,-0.31
2022-11-17T18:41:45.759Z,-0.45
2022-11-17T18:46:49.213Z,-0.51
2022-11-17T18:51:52.619Z,-0.57
2022-11-17T18:56:56.497Z,-0.62
2022-11-17T19:02:00.294Z,-0.63
2022-11-17T19:07:04.274Z,-0.57
2022-11-17T19:12:10.024Z,-0.50
2022-11-17T19:17:13.579Z,-0.49
2022-11-17T19:22:17.167Z,-0.45
2022-11-17T19:27:20.611Z,-0.44
2022-11-17T19:32:24.126Z,-0.56
2022-11-17T19:37:27.545Z,-0.70
2022-11-17T19:42:30.979Z,-0.81
2022-11-17T19:47:36.014Z,-0.78
2022-11-17T19:52:39.527Z,-0.64
2022-11-17T19:57:43.044Z,-0.47
2022-11-17T20:02:46.447Z,-0.38
2022-11-17T20:07:49.969Z,-0.45
2022-11-17T20:12:53.486Z,-0.53
2022-11-17T20:17:57.216Z,-0.58
2022-11-17T20:23:00.625Z,-0.64
2022-11-17T20:28:04.244Z,-0.59
2022-11-17T20:33:08.069Z,-0.44
2022-11-17T20:38:14.662Z,-0.30
2022-11-17T20:43:19.174Z,-0.22
2022-11-17T20:48:24.758Z,-0.24
2022-11-17T20:53:29.468Z,-0.23
2022-11-17T20:58:34.047Z,-0.19
2022-11-17T21:03:37.531Z,-0.15
2022-11-17T21:08:42.803Z,-0.23
2022-11-17T21:13:46.329Z,-0.22
2022-11-17T21:18:50.049Z,-0.21
2022-11-17T21:23:55.108Z,-0.19
2022-11-17T21:29:04.850Z,-0.19
2022-11-17T21:34:16.917Z,-0.19
2022-11-17T21:39:20.400Z,-0.09
2022-11-17T21:44:23.913Z,0.05
2022-11-17T21:49:27.633Z,0.09
2022-11-17T21:54:31.149Z,0.08
2022-11-17T21:59:34.665Z,0.10
2022-11-17T22:04:38.490Z,0.04
2022-11-17T22:09:41.904Z,-0.03
2022-11-17T22:14:45.315Z,-0.04
2022-11-17T22:19:48.762Z,-0.08
2022-11-17T22:24:52.249Z,-0.12
2022-11-17T22:29:55.766Z,-0.14
2022-11-17T22:35:02.047Z,-0.20
2022-11-17T22:40:07.029Z,-0.23
2022-11-17T22:45:11.134Z,-0.27
2022-11-17T22:50:14.550Z,-0.26
2022-11-17T22:55:18.260Z,-0.20
2022-11-17T23:00:21.780Z,-0.15
2022-11-17T23:05:25.235Z,-0.16
2022-11-17T23:10:29.357Z,-0.08
2022-11-17T23:15:32.782Z,-0.03
2022-11-17T23:20:36.811Z,0.02
2022-11-17T23:25:40.165Z,-0.04
2022-11-17T23:30:43.797Z,-0.08
2022-11-17T23:35:47.422Z,-0.09
2022-11-17T23:40:52.061Z,-0.10
2022-11-17T23:45:56.632Z,-0.07
2022-11-17T23:51:09.331Z,-0.08
2022-11-17T23:56:13.977Z,-0.07
